Darstellungsparameter: Aktuell verwendete Einstellungen:
Skalierung der Graphiken ... ?
xyx+y,   Skalierungsfaktor:      Skalierung: Modus: x, Faktor: 1
Darstellungszeitraum ... ?
Vom - - bis: - -   Zeitraum: 29.05.2010 - 29.05.2010
Min/Max/Avg-Anzeige ... ?
Zeige MMA aktuell
Zeige MMA Monat
Zeige MMA alles
Zeige --A aktuell
Zeige --A Monat
Zeige --A alles
Keine MMA-Anzeige
MMA:
Average (ber die Originaldaten)
MMA-Basis: 29.05.2010 - 29.05.2010
Quicknavigation für Darstellung... ?
Tage:      1T, 2T, 3T, 5T -1T -2T -3T -5T +1T +2T +3T +5T
Wochen: 1W, 2W, 3W -1W -2W -3W +1W +2W +3W
Monate: 1M, 3M, 6M -1M -3M -6M +1M +3M +6M
Jahre:    1J, 3J, 5J, 10J -1J -3J -5J -10J +1J +3J +5J +10J
Nutze für die Darstellung ... ?
Originaldaten oder Mittelwerte auf ...
Stundenbasis Tagesbasis Wochenbasis
Monatsbasis Jahresbasis      Datenbasis: Original-Daten
Darstellen als:
Statistik (Auto) Statistik J:M      Darstellung:
Zur Graphik,    zurück zur Übersicht aller Sensoren.
 
Tabellarische Datenbersicht: ?
 
Sensor: Nr:Datum:Temp:Abs-Feuchte:Windchill:Wind:
Aussen-T/F 1 29-05-2010 00:08:03 13.1 C 6.5 g/m*3 13.1 C 0 km/h
2 29-05-2010 00:20:03 13.1 C 6.62 g/m*3 13.1 C 0 km/h
3 29-05-2010 00:32:03 12.9 C 6.65 g/m*3 12.9 C 0 km/h
4 29-05-2010 00:44:03 12.7 C 6.68 g/m*3 12.7 C 0 km/h
5 29-05-2010 00:56:03 12.5 C 6.71 g/m*3 12.5 C 0 km/h
6 29-05-2010 01:08:03 12.3 C 6.62 g/m*3 12.3 C 0 km/h
7 29-05-2010 01:20:03 12.1 C 6.65 g/m*3 12.1 C 0 km/h
8 29-05-2010 01:32:04 11.9 C 6.78 g/m*3 11.9 C 0 km/h
9 29-05-2010 01:44:04 11.7 C 6.9 g/m*3 11.7 C 0 km/h
10 29-05-2010 01:56:04 11.6 C 6.86 g/m*3 11.6 C 0 km/h
11 29-05-2010 02:08:04 11.3 C 6.94 g/m*3 11.3 C 0 km/h
12 29-05-2010 02:20:04 11 C 6.91 g/m*3 11 C 0 km/h
13 29-05-2010 02:32:04 10.7 C 6.97 g/m*3 10.7 C 0 km/h
14 29-05-2010 02:44:04 10.6 C 6.93 g/m*3 10.6 C 0 km/h
15 29-05-2010 02:56:04 10.5 C 6.98 g/m*3 10.5 C 0 km/h
16 29-05-2010 03:08:04 10.2 C 6.95 g/m*3 10.2 C 0 km/h
17 29-05-2010 03:20:04 10.1 C 7 g/m*3 10.1 C 0 km/h
18 29-05-2010 03:32:04 9.9 C 7 g/m*3 9.9 C 0 km/h
19 29-05-2010 03:44:04 9.9 C 7.1 g/m*3 9.9 C 0 km/h
20 29-05-2010 03:56:04 9.8 C 7.05 g/m*3 9.8 C 0 km/h
21 29-05-2010 04:08:04 9.8 C 7.05 g/m*3 9.8 C 0 km/h
22 29-05-2010 04:20:04 9.7 C 7.1 g/m*3 9.7 C 0 km/h
23 29-05-2010 04:32:04 9.7 C 7.1 g/m*3 9.7 C 0 km/h
24 29-05-2010 04:44:04 9.6 C 7.05 g/m*3 9.6 C 0 km/h
25 29-05-2010 04:56:04 9.7 C 7.1 g/m*3 9.7 C 0 km/h
Sensor: Nr:Datum:Temp:Abs-Feuchte:Windchill:Wind:
Aussen-T/F 26 29-05-2010 05:08:04 9.6 C 6.96 g/m*3 9.6 C 0 km/h
27 29-05-2010 05:20:04 9.5 C 7.01 g/m*3 9.5 C 0 km/h
28 29-05-2010 05:32:05 9.5 C 7.01 g/m*3 9.5 C 0 km/h
29 29-05-2010 05:44:05 9.5 C 7.01 g/m*3 9.5 C 0 km/h
30 29-05-2010 05:56:05 9.3 C 7.01 g/m*3 9.3 C 0 km/h
31 29-05-2010 06:08:05 9.4 C 7.05 g/m*3 9.4 C 0 km/h
32 29-05-2010 06:20:05 9.6 C 7.15 g/m*3 9.6 C 0 km/h
33 29-05-2010 06:32:05 9.9 C 7.28 g/m*3 9.9 C 0 km/h
34 29-05-2010 06:44:05 10 C 7.14 g/m*3 10 C 0 km/h
35 29-05-2010 06:56:05 10 C 7.05 g/m*3 10 C 0 km/h
36 29-05-2010 07:08:05 9.9 C 7.1 g/m*3 9.9 C 0 km/h
37 29-05-2010 07:20:05 10.1 C 7.09 g/m*3 10.1 C 0 km/h
38 29-05-2010 07:32:05 10.2 C 7.14 g/m*3 10.2 C 0 km/h
39 29-05-2010 07:44:05 10.3 C 7.18 g/m*3 10.3 C 0 km/h
40 29-05-2010 07:56:05 10.4 C 7.23 g/m*3 10.4 C 0 km/h
41 29-05-2010 08:08:05 10.7 C 7.37 g/m*3 10.7 C 0 km/h
42 29-05-2010 08:20:05 11 C 7.31 g/m*3 11 C 0 km/h
43 29-05-2010 08:32:02 11.3 C 7.24 g/m*3 11.3 C 0 km/h
44 29-05-2010 08:44:02 11.7 C 7.11 g/m*3 11.7 C 0 km/h
45 29-05-2010 08:56:02 11.5 C 6.92 g/m*3 11.5 C 0 km/h
46 29-05-2010 09:08:02 11.8 C 7.16 g/m*3 11.8 C 0 km/h
47 29-05-2010 09:20:01 12.2 C 7.01 g/m*3 12.2 C 0 km/h
48 29-05-2010 09:32:02 12.7 C 7.01 g/m*3 12.7 C 0 km/h
49 29-05-2010 09:44:02 13.4 C 7.09 g/m*3 13.4 C 0 km/h
50 29-05-2010 09:56:02 14.2 C 6.96 g/m*3 14.2 C 0 km/h
Sensor: Nr:Datum:Temp:Abs-Feuchte:Windchill:Wind:
Aussen-T/F 51 29-05-2010 10:08:02 15 C 6.92 g/m*3 15 C 0 km/h
52 29-05-2010 10:20:02 16.1 C 7.26 g/m*3 16.1 C 0 km/h
53 29-05-2010 10:32:02 17.4 C 7.41 g/m*3 17.4 C 0 km/h
54 29-05-2010 10:44:02 17.9 C 7.02 g/m*3 17.9 C 0 km/h
55 29-05-2010 10:56:02 18.1 C 6.8 g/m*3 18.1 C 0 km/h
56 29-05-2010 11:08:02 18.4 C 6.92 g/m*3 18.4 C 0 km/h
57 29-05-2010 11:20:02 18.1 C 7.42 g/m*3 18.1 C 0 km/h
58 29-05-2010 11:32:02 18.4 C 7.55 g/m*3 18.4 C 0 km/h
59 29-05-2010 11:44:02 18.8 C 7.41 g/m*3 18.8 C 0 km/h
60 29-05-2010 11:56:01 19.6 C 7.26 g/m*3 19.6 C 0 km/h
61 29-05-2010 12:08:01 20.9 C 6.01 g/m*3 20.9 C 0 km/h
62 29-05-2010 12:20:01 21.8 C 5.76 g/m*3 21.8 C 0 km/h
63 29-05-2010 12:32:01 21.6 C 5.12 g/m*3 21.6 C 0 km/h
64 29-05-2010 12:44:01 21.2 C 5.19 g/m*3 21.2 C 0 km/h
65 29-05-2010 12:56:01 23.1 C 5.17 g/m*3 23.1 C 0 km/h
66 29-05-2010 13:08:01 24 C 4.79 g/m*3 24 C 0 km/h
67 29-05-2010 13:20:02 25.1 C 5.32 g/m*3 25.1 C 0 km/h
68 29-05-2010 13:32:01 25 C 4.6 g/m*3 25 C 0 km/h
69 29-05-2010 13:44:01 25.5 C 4.73 g/m*3 25.5 C 0 km/h
70 29-05-2010 13:56:02 24.6 C 4.73 g/m*3 24.6 C 0 km/h
71 29-05-2010 14:08:01 23.7 C 5.13 g/m*3 23.7 C 0 km/h
72 29-05-2010 14:20:02 23.8 C 5.38 g/m*3 23.8 C 0 km/h
73 29-05-2010 14:32:01 23.7 C 5.13 g/m*3 23.7 C 0 km/h
74 29-05-2010 14:44:01 23.3 C 5.23 g/m*3 23.3 C 0 km/h
75 29-05-2010 14:56:03 22.6 C 5.62 g/m*3 22.6 C 0 km/h
Sensor: Nr:Datum:Temp:Abs-Feuchte:Windchill:Wind:
Aussen-T/F 76 29-05-2010 15:08:02 23 C 5.55 g/m*3 23 C 0 km/h
77 29-05-2010 15:20:03 22.5 C 5.19 g/m*3 22.5 C 0 km/h
78 29-05-2010 15:32:02 22.7 C 6.06 g/m*3 22.7 C 0 km/h
79 29-05-2010 15:44:02 23.5 C 5.08 g/m*3 23.5 C 0 km/h
80 29-05-2010 15:56:02 23.4 C 4.84 g/m*3 23.4 C 0 km/h
81 29-05-2010 16:08:02 23.5 C 4.86 g/m*3 23.5 C 0 km/h
82 29-05-2010 16:20:02 24.5 C 5.15 g/m*3 24.5 C 0 km/h
83 29-05-2010 16:32:02 24.4 C 4.9 g/m*3 24.4 C 0 km/h
84 29-05-2010 16:44:02 24.5 C 5.15 g/m*3 24.5 C 0 km/h
85 29-05-2010 16:56:02 25.2 C 4.89 g/m*3 25.2 C 0 km/h
86 29-05-2010 17:08:02 25.1 C 5.79 g/m*3 25.1 C 0 km/h
87 29-05-2010 17:20:03 24.9 C 5.72 g/m*3 24.9 C 0 km/h
88 29-05-2010 17:32:02 23.5 C 5.92 g/m*3 23.5 C 0 km/h
89 29-05-2010 17:44:02 23.3 C 6.27 g/m*3 23.3 C 0 km/h
90 29-05-2010 17:56:02 23 C 5.96 g/m*3 23 C 0 km/h
91 29-05-2010 18:08:02 22.4 C 6.16 g/m*3 22.4 C 0 km/h
92 29-05-2010 18:20:02 22 C 6.21 g/m*3 22 C 0 km/h
93 29-05-2010 18:32:03 21.6 C 6.45 g/m*3 21.6 C 0 km/h
94 29-05-2010 18:44:03 21.3 C 5.78 g/m*3 21.3 C 0 km/h
95 29-05-2010 18:56:02 21.2 C 5.56 g/m*3 21.2 C 0 km/h
96 29-05-2010 19:08:01 21.2 C 5.56 g/m*3 21.2 C 0 km/h
97 29-05-2010 19:20:02 21 C 5.13 g/m*3 21 C 0 km/h
98 29-05-2010 19:32:02 20.4 C 5.31 g/m*3 20.4 C 0 km/h
99 29-05-2010 19:44:02 20.3 C 5.28 g/m*3 20.3 C 0 km/h
100 29-05-2010 19:56:02 20.4 C 5.48 g/m*3 20.4 C 0 km/h
Sensor: Nr:Datum:Temp:Abs-Feuchte:Windchill:Wind:
Aussen-T/F 101 29-05-2010 20:08:02 20 C 5.53 g/m*3 20 C 0 km/h
102 29-05-2010 20:20:02 19.6 C 5.74 g/m*3 19.6 C 0 km/h
103 29-05-2010 20:32:02 19.4 C 5.84 g/m*3 19.4 C 0 km/h
104 29-05-2010 20:44:02 18.9 C 6.32 g/m*3 18.9 C 0 km/h
105 29-05-2010 20:56:02 18.6 C 6.37 g/m*3 18.6 C 0 km/h
106 29-05-2010 21:08:02 18.4 C 5.98 g/m*3 18.4 C 0 km/h
107 29-05-2010 21:20:02 18.3 C 5.79 g/m*3 18.3 C 0 km/h
108 29-05-2010 21:32:02 17.6 C 6.9 g/m*3 17.6 C 0 km/h
109 29-05-2010 21:44:02 16.4 C 6.84 g/m*3 16.4 C 0 km/h
110 29-05-2010 21:56:02 14.6 C 8.13 g/m*3 14.6 C 0 km/h
111 29-05-2010 22:08:02 13.8 C 8.94 g/m*3 13.8 C 0 km/h
112 29-05-2010 22:20:01 13.3 C 9.01 g/m*3 13.3 C 0 km/h
113 29-05-2010 22:32:01 13.9 C 9.47 g/m*3 13.9 C 0 km/h
114 29-05-2010 22:44:01 14.3 C 8.97 g/m*3 14.3 C 0 km/h
115 29-05-2010 22:57:02 14.5 C 8.95 g/m*3 14.5 C 0 km/h
116 29-05-2010 23:09:02 14.5 C 8.71 g/m*3 14.5 C 0 km/h
117 29-05-2010 23:21:02 14.4 C 8.65 g/m*3 14.4 C 0 km/h
118 29-05-2010 23:33:02 13.7 C 8.76 g/m*3 13.7 C 0 km/h
119 29-05-2010 23:45:02 12.8 C 8.96 g/m*3 12.8 C 0 km/h
120 29-05-2010 23:57:02 13.2 C 9.42 g/m*3 13.2 C 0 km/h

Legende:
   Min
   Max


Maximal/Minimal-Werte vom 29.05.2010 - 29.05.2010

Sensor Min Max Avg
Temp
(Aussen-T/F)
9.3 °C
29-05-2010  05:56:05
25.5 °C
29-05-2010  13:44:01
16.34 °C
Abs-Feuchte
(Aussen-T/F)
4.6 g/m*3
29-05-2010  13:32:01
9.47 g/m*3
29-05-2010  22:32:01
6.54 g/m*3
Windchill
(Aussen-T/F)
9.3 C
29-05-2010  05:56:05
25.5 C
29-05-2010  13:44:01
16.2 C

Die Daten stammen von einer Davis Vantage Pro 2 Wetter-Station und werden unter Linux mit der Software wview2wettercgi und aufbereitet. Alle Angaben erfolgen ohne Gewähr für ihre Vollständigkeit oder Richtigkeit.
Kontakt: Rainer Krienke krienke@uni-koblenz.de . Meine Webseiten an der Uni Koblenz oder privat.
Version: $Revision: 0.78 $